createdAt,value
2018-03-26T00:00:35.943Z,100447.93
2018-03-26T00:03:01.761Z,100450.47
2018-03-26T00:05:27.574Z,100454.77
2018-03-26T00:07:53.427Z,100452.33
2018-03-26T00:10:19.278Z,100453.62
2018-03-26T00:12:45.142Z,100450.28
2018-03-26T00:15:10.956Z,100447.58
2018-03-26T00:17:36.885Z,100455.86
2018-03-26T00:20:02.703Z,100454.45
2018-03-26T00:22:28.551Z,100455.93
2018-03-26T00:24:54.368Z,100449.22
2018-03-26T00:27:20.178Z,100454.36
2018-03-26T00:29:45.990Z,100451.30
2018-03-26T00:32:11.816Z,100446.61
2018-03-26T00:34:37.647Z,100452.62
2018-03-26T00:37:03.515Z,100446.58
2018-03-26T00:39:29.328Z,100448.48
2018-03-26T00:41:55.141Z,100441.86
2018-03-26T00:44:20.954Z,100448.44
2018-03-26T00:46:46.771Z,100446.77
2018-03-26T00:49:12.586Z,100448.22
2018-03-26T00:51:38.405Z,100446.80
2018-03-26T00:54:04.222Z,100448.48
2018-03-26T00:56:30.036Z,100445.35
2018-03-26T00:58:55.854Z,100445.03
2018-03-26T01:01:21.666Z,100445.16
2018-03-26T01:03:47.480Z,100450.34
2018-03-26T01:06:13.294Z,100449.31
2018-03-26T01:08:39.102Z,100441.70
2018-03-26T01:11:04.910Z,100443.53
2018-03-26T01:13:30.726Z,100447.55
2018-03-26T01:15:56.545Z,100446.13
2018-03-26T01:18:22.369Z,100448.89
2018-03-26T01:20:48.179Z,100452.91
2018-03-26T01:23:13.997Z,100453.97
2018-03-26T01:25:39.809Z,100449.60
2018-03-26T01:28:05.614Z,100451.46
2018-03-26T01:30:31.434Z,100455.86
2018-03-26T01:32:57.241Z,100453.68
2018-03-26T01:35:23.056Z,100456.77
2018-03-26T01:37:48.870Z,100456.73
2018-03-26T01:40:14.683Z,100455.55
2018-03-26T01:42:40.494Z,100462.94
2018-03-26T01:45:06.306Z,100460.87
2018-03-26T01:47:32.169Z,100460.94
2018-03-26T01:49:58.021Z,100466.14
2018-03-26T01:52:23.834Z,100468.01
2018-03-26T01:54:49.674Z,100463.28
2018-03-26T01:57:15.487Z,100464.09
2018-03-26T01:59:41.306Z,100466.38
2018-03-26T02:02:07.126Z,100466.21
2018-03-26T02:04:32.978Z,100468.14
2018-03-26T02:06:58.794Z,100464.95
2018-03-26T02:09:24.606Z,100470.03
2018-03-26T02:11:50.413Z,100469.55
2018-03-26T02:14:16.224Z,100470.99
2018-03-26T02:16:42.084Z,100472.38
2018-03-26T02:19:07.894Z,100470.73
2018-03-26T02:21:33.715Z,100474.59
2018-03-26T02:23:59.523Z,100473.44
2018-03-26T02:26:25.374Z,100476.84
2018-03-26T02:28:51.187Z,100471.28
2018-03-26T02:31:16.998Z,100476.33
2018-03-26T02:33:42.820Z,100479.09
2018-03-26T02:36:08.648Z,100481.27
2018-03-26T02:38:34.507Z,100479.73
2018-03-26T02:41:00.322Z,100479.73
2018-03-26T02:43:26.139Z,100480.91
2018-03-26T02:45:52.779Z,100480.70
2018-03-26T02:48:18.626Z,100482.84
2018-03-26T02:50:44.482Z,100483.39
2018-03-26T02:53:10.318Z,100485.55
2018-03-26T02:55:36.127Z,100491.58
2018-03-26T02:58:01.978Z,100488.44
2018-03-26T03:00:27.791Z,100494.22
2018-03-26T03:02:53.604Z,100489.05
2018-03-26T03:05:19.417Z,100492.20
2018-03-26T03:07:45.231Z,100485.35
2018-03-26T03:10:11.045Z,100487.98
2018-03-26T03:12:36.899Z,100493.16
2018-03-26T03:15:02.726Z,100486.53
2018-03-26T03:17:28.570Z,100495.80
2018-03-26T03:19:54.382Z,100497.27
2018-03-26T03:22:20.226Z,100493.73
2018-03-26T03:24:46.070Z,100496.50
2018-03-26T03:27:11.926Z,100496.44
2018-03-26T03:29:37.746Z,100497.63
2018-03-26T03:32:03.591Z,100499.06
2018-03-26T03:34:29.442Z,100502.05
2018-03-26T03:36:55.254Z,100504.81
2018-03-26T03:39:21.059Z,100503.59
2018-03-26T03:41:47.814Z,100511.09
2018-03-26T03:44:13.626Z,100508.68
2018-03-26T03:46:39.475Z,100511.14
2018-03-26T03:49:05.338Z,100515.45
2018-03-26T03:51:31.154Z,100514.58
2018-03-26T03:53:56.998Z,100516.80
2018-03-26T03:56:22.809Z,100515.69
2018-03-26T03:58:48.664Z,100519.02
2018-03-26T04:01:14.514Z,100517.83
2018-03-26T04:03:40.322Z,100515.23
2018-03-26T04:06:06.132Z,100519.17
2018-03-26T04:08:31.945Z,100525.20
2018-03-26T04:10:57.766Z,100517.91
2018-03-26T04:13:23.580Z,100518.63
2018-03-26T04:15:49.394Z,100524.84
2018-03-26T04:18:15.210Z,100532.52
2018-03-26T04:20:41.031Z,100526.50
2018-03-26T04:23:06.842Z,100526.52
2018-03-26T04:25:32.762Z,100533.25
2018-03-26T04:27:58.582Z,100526.17
2018-03-26T04:30:24.394Z,100528.86
2018-03-26T04:32:50.206Z,100538.22
2018-03-26T04:35:16.029Z,100537.81
2018-03-26T04:37:41.845Z,100535.40
2018-03-26T04:40:07.661Z,100536.91
2018-03-26T04:42:33.470Z,100540.94
2018-03-26T04:44:59.286Z,100538.92
2018-03-26T04:47:25.130Z,100541.54
2018-03-26T04:49:50.944Z,100550.55
2018-03-26T04:52:16.754Z,100548.27
2018-03-26T04:54:42.571Z,100556.33
2018-03-26T04:57:08.387Z,100556.75
2018-03-26T04:59:34.194Z,100550.38
2018-03-26T05:02:00.011Z,100555.56
2018-03-26T05:04:25.834Z,100556.03
2018-03-26T05:06:51.718Z,100554.40
2018-03-26T05:09:17.531Z,100556.13
2018-03-26T05:11:43.435Z,100559.25
2018-03-26T05:14:09.238Z,100551.75
2018-03-26T05:16:36.124Z,100556.59
2018-03-26T05:19:01.990Z,100554.73
2018-03-26T05:21:27.810Z,100567.27
2018-03-26T05:23:53.627Z,100563.39
2018-03-26T05:26:19.453Z,100565.35
2018-03-26T05:28:45.270Z,100558.84
2018-03-26T05:31:11.150Z,100562.06
2018-03-26T05:33:36.927Z,100559.63
2018-03-26T05:36:02.748Z,100560.99
2018-03-26T05:38:28.563Z,100557.58
2018-03-26T05:40:54.383Z,100573.18
2018-03-26T05:43:20.190Z,100568.29
2018-03-26T05:45:46.003Z,100574.71
2018-03-26T05:48:11.818Z,100570.05
2018-03-26T05:50:37.693Z,100577.11
2018-03-26T05:53:03.518Z,100567.64
2018-03-26T05:55:29.375Z,100572.69
2018-03-26T05:57:56.078Z,100571.92
2018-03-26T06:00:21.970Z,100577.04
2018-03-26T06:02:47.922Z,100579.87
2018-03-26T06:05:13.730Z,100582.73
2018-03-26T06:07:39.543Z,100576.05
2018-03-26T06:10:05.394Z,100575.70
2018-03-26T06:12:31.216Z,100576.86
2018-03-26T06:15:04.136Z,100570.08
2018-03-26T06:17:30.959Z,100566.30
2018-03-26T06:19:56.827Z,100582.31
2018-03-26T06:22:23.494Z,100598.66
2018-03-26T06:24:49.343Z,100592.28
2018-03-26T06:27:15.213Z,100582.52
2018-03-26T06:29:41.047Z,100592.78
2018-03-26T06:32:06.922Z,100602.26
2018-03-26T06:34:32.749Z,100601.89
2018-03-26T06:39:57.189Z,100610.67
2018-03-26T06:42:23.006Z,100610.71
2018-03-26T06:44:48.846Z,100606.73
2018-03-26T06:47:14.744Z,100615.16
2018-03-26T06:49:40.526Z,100609.20
2018-03-26T06:52:06.388Z,100614.80
2018-03-26T06:54:32.195Z,100615.23
2018-03-26T06:56:59.571Z,100621.88
2018-03-26T06:59:25.430Z,100618.33
2018-03-26T07:01:51.250Z,100625.37
2018-03-26T07:04:17.102Z,100620.84
2018-03-26T07:06:42.917Z,100621.98
2018-03-26T07:09:09.379Z,100630.73
2018-03-26T07:11:35.186Z,100625.05
2018-03-26T07:14:01.043Z,100624.31
2018-03-26T07:16:26.900Z,100631.62
2018-03-26T07:18:52.774Z,100625.04
2018-03-26T07:21:18.622Z,100630.53
2018-03-26T07:23:44.438Z,100626.16
2018-03-26T07:26:10.299Z,100635.67
2018-03-26T07:28:36.134Z,100631.59
2018-03-26T07:31:01.949Z,100638.80
2018-03-26T07:33:27.822Z,100637.48
2018-03-26T07:35:53.644Z,100642.55
2018-03-26T07:38:19.486Z,100639.20
2018-03-26T07:40:45.290Z,100643.64
2018-03-26T07:43:11.154Z,100647.25
2018-03-26T07:45:37.083Z,100647.19
2018-03-26T07:48:02.943Z,100655.70
2018-03-26T07:50:28.763Z,100654.09
2018-03-26T07:52:55.402Z,100659.39
2018-03-26T07:55:21.228Z,100658.08
2018-03-26T07:57:47.051Z,100659.67
2018-03-26T08:00:12.880Z,100656.55
2018-03-26T08:02:38.695Z,100656.28
2018-03-26T08:05:04.621Z,100654.92
2018-03-26T08:07:30.610Z,100660.67
2018-03-26T08:09:56.458Z,100667.02
2018-03-26T08:12:22.454Z,100666.63
2018-03-26T08:14:48.270Z,100670.27
2018-03-26T08:17:14.169Z,100675.06
2018-03-26T08:19:39.968Z,100670.42
2018-03-26T08:22:05.774Z,100676.22
2018-03-26T08:24:31.580Z,100676.52
2018-03-26T08:26:57.564Z,100677.90
2018-03-26T08:29:23.382Z,100680.97
2018-03-26T08:31:52.655Z,100685.00
2018-03-26T08:34:18.471Z,100688.18
2018-03-26T08:36:44.288Z,100684.14
2018-03-26T08:39:10.107Z,100685.97
2018-03-26T08:41:36.542Z,100681.41
2018-03-26T08:44:02.358Z,100683.36
2018-03-26T08:46:28.179Z,100685.28
2018-03-26T08:48:53.991Z,100687.39
2018-03-26T08:51:19.849Z,100688.42
2018-03-26T08:53:45.663Z,100687.29
2018-03-26T08:56:11.478Z,100683.88
2018-03-26T08:58:37.295Z,100692.23
2018-03-26T09:01:03.115Z,100698.63
2018-03-26T09:03:28.962Z,100692.88
2018-03-26T09:05:54.771Z,100691.34
2018-03-26T09:08:20.609Z,100697.34
2018-03-26T09:10:46.418Z,100699.70
2018-03-26T09:13:12.274Z,100696.30
2018-03-26T09:15:38.085Z,100699.75
2018-03-26T09:18:03.943Z,100705.55
2018-03-26T09:20:29.771Z,100703.59
2018-03-26T09:22:55.583Z,100705.78
2018-03-26T09:25:21.398Z,100707.11
2018-03-26T09:27:47.207Z,100714.95
2018-03-26T09:30:13.018Z,100719.02
2018-03-26T09:32:38.835Z,100714.32
2018-03-26T09:35:04.642Z,100720.78
2018-03-26T09:37:30.459Z,100720.98
2018-03-26T09:39:56.271Z,100723.36
2018-03-26T09:42:22.092Z,100730.01
2018-03-26T09:44:47.919Z,100728.75
2018-03-26T09:47:13.730Z,100731.74
2018-03-26T09:49:39.542Z,100730.95
2018-03-26T09:52:05.359Z,100728.59
2018-03-26T09:54:31.194Z,100733.83
2018-03-26T09:56:57.006Z,100739.93
2018-03-26T09:59:22.818Z,100738.02
2018-03-26T10:01:54.778Z,100738.58
2018-03-26T10:04:20.594Z,100737.23
2018-03-26T10:06:46.407Z,100738.66
2018-03-26T10:09:12.219Z,100745.25
2018-03-26T10:11:38.038Z,100746.74
2018-03-26T10:14:03.846Z,100748.86
2018-03-26T10:16:29.700Z,100749.52
2018-03-26T10:18:55.520Z,100746.13
2018-03-26T10:21:21.396Z,100750.48
2018-03-26T10:23:47.218Z,100755.87
2018-03-26T10:26:13.027Z,100753.95
2018-03-26T10:28:38.843Z,100758.31
2018-03-26T10:31:04.656Z,100761.52
2018-03-26T10:33:30.467Z,100758.91
2018-03-26T10:35:56.359Z,100759.47
2018-03-26T10:38:22.220Z,100760.78
2018-03-26T10:40:48.036Z,100759.30
2018-03-26T10:43:14.058Z,100756.80
2018-03-26T10:45:39.867Z,100761.66
2018-03-26T10:48:05.749Z,100759.48
2018-03-26T10:50:31.578Z,100770.61
2018-03-26T10:52:57.563Z,100771.41
2018-03-26T10:55:23.371Z,100770.30
2018-03-26T10:57:49.435Z,100776.16
2018-03-26T11:00:15.286Z,100772.25
2018-03-26T11:02:41.103Z,100777.56
2018-03-26T11:05:06.921Z,100772.00
2018-03-26T11:07:32.773Z,100775.82
2018-03-26T11:10:00.473Z,100773.64
2018-03-26T11:23:22.676Z,100777.88
2018-03-26T11:25:48.494Z,100776.63
2018-03-26T11:28:14.310Z,100781.29
2018-03-26T11:30:40.238Z,100782.73
2018-03-26T11:33:06.159Z,100782.13
2018-03-26T11:35:32.015Z,100785.02
2018-03-26T11:38:00.735Z,100783.91
2018-03-26T11:40:26.586Z,100783.41
2018-03-26T11:42:52.394Z,100793.34
2018-03-26T11:45:18.255Z,100790.14
2018-03-26T11:47:44.070Z,100790.86
2018-03-26T11:50:09.966Z,100792.99
2018-03-26T11:52:35.774Z,100795.69
2018-03-26T11:55:01.593Z,100793.89
2018-03-26T11:57:27.397Z,100798.54
2018-03-26T11:59:53.379Z,100800.97
2018-03-26T12:02:19.246Z,100796.05
2018-03-26T12:04:45.138Z,100794.25
2018-03-26T12:07:10.999Z,100797.52
2018-03-26T12:09:36.811Z,100800.02
2018-03-26T12:12:02.623Z,100799.06
2018-03-26T12:14:28.442Z,100796.48
2018-03-26T12:16:54.255Z,100798.95
2018-03-26T12:19:20.082Z,100802.80
2018-03-26T12:21:45.895Z,100801.55
2018-03-26T12:24:17.868Z,100802.89
2018-03-26T12:26:43.704Z,100805.84
2018-03-26T12:29:15.538Z,100808.05
2018-03-26T12:31:41.354Z,100806.87
2018-03-26T12:34:13.191Z,100808.96
2018-03-26T12:36:38.999Z,100812.53
2018-03-26T12:39:04.812Z,100811.23
2018-03-26T12:41:30.633Z,100819.48
2018-03-26T12:43:56.452Z,100818.10
2018-03-26T12:46:28.476Z,100815.55
2018-03-26T12:48:54.294Z,100816.03
2018-03-26T12:51:26.304Z,100816.97
2018-03-26T12:53:52.121Z,100822.48
2018-03-26T12:56:17.971Z,100815.67
2018-03-26T12:58:46.745Z,100818.11
2018-03-26T13:01:18.896Z,100817.59
2018-03-26T13:03:44.724Z,100817.27
2018-03-26T13:06:10.573Z,100820.16
2018-03-26T13:08:36.402Z,100820.41
2018-03-26T13:11:02.283Z,100824.19
2018-03-26T13:13:28.608Z,100823.34
2018-03-26T13:15:54.434Z,100821.85
2018-03-26T13:18:20.599Z,100830.95
2018-03-26T13:20:46.422Z,100826.76
2018-03-26T13:23:12.308Z,100828.95
2018-03-26T13:25:38.122Z,100827.89
2018-03-26T13:28:03.942Z,100834.77
2018-03-26T13:30:29.761Z,100839.31
2018-03-26T13:32:55.566Z,100841.97
2018-03-26T13:35:21.416Z,100845.05
2018-03-26T13:37:47.224Z,100842.41
2018-03-26T13:40:13.051Z,100846.86
2018-03-26T13:42:38.922Z,100847.01
2018-03-26T13:45:04.907Z,100843.59
2018-03-26T13:47:30.714Z,100849.02
2018-03-26T13:49:56.575Z,100852.09
2018-03-26T13:52:22.410Z,100848.47
2018-03-26T13:54:48.275Z,100852.69
2018-03-26T13:57:14.091Z,100854.91
2018-03-26T13:59:39.952Z,100858.29
2018-03-26T14:02:05.810Z,100858.66
2018-03-26T14:04:31.662Z,100864.62
2018-03-26T14:06:57.470Z,100863.15
2018-03-26T14:09:29.409Z,100865.78
2018-03-26T14:12:01.395Z,100863.92
2018-03-26T14:14:33.386Z,100869.83
2018-03-26T14:17:05.404Z,100873.60
2018-03-26T14:19:31.257Z,100870.25
2018-03-26T14:21:57.087Z,100874.62
2018-03-26T14:24:22.903Z,100876.66
2018-03-26T14:26:48.715Z,100875.84
2018-03-26T14:29:14.532Z,100870.73
2018-03-26T14:31:40.347Z,100878.22
2018-03-26T14:34:06.153Z,100880.13
2018-03-26T14:36:31.966Z,100882.62
2018-03-26T14:38:57.784Z,100876.89
2018-03-26T14:41:24.458Z,100881.75
2018-03-26T14:43:50.291Z,100879.35
2018-03-26T14:46:16.263Z,100877.52
2018-03-26T14:48:42.118Z,100880.19
2018-03-26T14:51:07.936Z,100888.67
2018-03-26T14:53:33.862Z,100883.25
2018-03-26T14:55:59.898Z,100882.58
2018-03-26T14:58:25.702Z,100881.84
2018-03-26T15:00:51.631Z,100876.55
2018-03-26T15:03:17.456Z,100878.34
2018-03-26T15:05:43.266Z,100879.34
2018-03-26T15:08:09.071Z,100881.08
2018-03-26T15:10:34.880Z,100881.06
2018-03-26T15:13:00.742Z,100885.34
2018-03-26T15:15:26.547Z,100885.88
2018-03-26T15:17:52.378Z,100882.67
2018-03-26T15:20:18.211Z,100886.91
2018-03-26T15:22:44.028Z,100883.42
2018-03-26T15:25:09.866Z,100886.09
2018-03-26T15:27:35.679Z,100889.48
2018-03-26T15:30:01.502Z,100883.25
2018-03-26T15:32:27.350Z,100887.44
2018-03-26T15:34:53.171Z,100880.48
2018-03-26T15:37:19.064Z,100887.08
2018-03-26T15:39:44.886Z,100891.84
2018-03-26T15:42:10.776Z,100890.85
2018-03-26T15:44:36.590Z,100889.89
2018-03-26T15:47:02.406Z,100889.69
2018-03-26T15:49:28.227Z,100886.87
2018-03-26T15:51:54.038Z,100891.63
2018-03-26T15:54:19.889Z,100891.75
2018-03-26T15:56:45.702Z,100893.12
2018-03-26T15:59:11.523Z,100887.56
2018-03-26T16:01:37.356Z,100883.78
2018-03-26T16:04:03.235Z,100883.12
2018-03-26T16:06:29.023Z,100886.78
2018-03-26T16:08:54.830Z,100883.01
2018-03-26T16:11:20.642Z,100882.53
2018-03-26T16:13:46.450Z,100883.75
2018-03-26T16:16:12.259Z,100885.07
2018-03-26T16:18:38.078Z,100884.23
2018-03-26T16:21:03.890Z,100875.84
2018-03-26T16:23:29.703Z,100877.55
2018-03-26T16:25:55.567Z,100875.82
2018-03-26T16:28:21.468Z,100877.52
2018-03-26T16:30:47.378Z,100877.59
2018-03-26T16:33:13.228Z,100878.25
2018-03-26T16:35:39.107Z,100881.75
2018-03-26T16:38:04.918Z,100879.27
2018-03-26T16:40:30.743Z,100877.13
2018-03-26T16:43:06.667Z,100875.84
2018-03-26T16:45:32.639Z,100884.65
2018-03-26T16:47:58.582Z,100881.12
2018-03-26T16:50:24.497Z,100886.72
2018-03-26T16:52:50.303Z,100885.58
2018-03-26T16:55:16.122Z,100878.36
2018-03-26T16:57:41.935Z,100885.31
2018-03-26T17:02:52.866Z,100892.02
2018-03-26T17:05:18.729Z,100893.77
2018-03-26T17:07:44.540Z,100898.75
2018-03-26T17:10:10.359Z,100898.84
2018-03-26T17:12:36.190Z,100903.56
2018-03-26T17:15:02.179Z,100898.02
2018-03-26T17:17:27.995Z,100901.61
2018-03-26T17:19:53.835Z,100891.99
2018-03-26T17:22:19.637Z,100889.20
2018-03-26T17:24:45.618Z,100890.79
2018-03-26T17:27:11.509Z,100892.16
2018-03-26T17:29:37.328Z,100899.58
2018-03-26T17:32:03.183Z,100897.67
2018-03-26T17:34:29.002Z,100898.19
2018-03-26T17:36:54.830Z,100901.54
2018-03-26T17:39:20.700Z,100907.34
2018-03-26T17:41:46.506Z,100906.75
2018-03-26T17:44:12.319Z,100910.48
2018-03-26T17:46:38.131Z,100914.55
2018-03-26T17:49:03.947Z,100910.25
2018-03-26T17:51:29.769Z,100913.39
2018-03-26T17:53:55.586Z,100916.91
2018-03-26T17:56:21.452Z,100921.04
2018-03-26T17:58:47.342Z,100925.00
2018-03-26T18:01:13.163Z,100924.63
2018-03-26T18:03:38.971Z,100926.52
2018-03-26T18:06:04.794Z,100938.84
2018-03-26T18:08:30.609Z,100936.88
2018-03-26T18:10:56.426Z,100948.61
2018-03-26T18:13:22.242Z,100958.36
2018-03-26T18:15:48.058Z,100959.67
2018-03-26T18:18:13.893Z,100955.24
2018-03-26T18:20:39.711Z,100959.06
2018-03-26T18:23:05.539Z,100965.44
2018-03-26T18:25:31.363Z,100968.70
2018-03-26T18:27:57.180Z,100970.46
2018-03-26T18:30:22.995Z,100976.47
2018-03-26T18:32:48.810Z,100969.37
2018-03-26T18:35:14.636Z,100974.44
2018-03-26T18:37:40.453Z,100976.11
2018-03-26T18:40:06.267Z,100969.63
2018-03-26T18:42:32.092Z,100974.99
2018-03-26T18:44:58.090Z,100975.80
2018-03-26T18:47:23.907Z,100982.75
2018-03-26T18:49:49.850Z,100980.28
2018-03-26T18:52:15.680Z,100982.06
2018-03-26T18:54:41.495Z,100981.38
2018-03-26T18:57:07.367Z,100989.38
2018-03-26T18:59:33.291Z,100995.09
2018-03-26T19:01:59.301Z,100997.98
2018-03-26T19:04:25.406Z,101002.41
2018-03-26T19:06:51.234Z,101006.04
2018-03-26T19:09:17.210Z,101010.42
2018-03-26T19:11:43.031Z,101008.78
2018-03-26T19:14:09.016Z,101016.58
2018-03-26T19:16:34.830Z,101013.10
2018-03-26T19:19:00.798Z,101015.94
2018-03-26T19:21:26.752Z,101027.29
2018-03-26T19:23:52.572Z,101027.01
2018-03-26T19:26:18.394Z,101030.63
2018-03-26T19:28:44.253Z,101026.50
2018-03-26T19:31:10.084Z,101032.70
2018-03-26T19:33:36.025Z,101032.34
2018-03-26T19:36:01.848Z,101035.14
2018-03-26T19:38:27.667Z,101034.88
2018-03-26T19:40:53.723Z,101038.12
2018-03-26T19:43:19.558Z,101038.25
2018-03-26T19:45:45.498Z,101042.11
2018-03-26T19:48:11.314Z,101041.47
2018-03-26T19:50:37.283Z,101040.74
2018-03-26T19:53:03.127Z,101041.53
2018-03-26T19:55:28.982Z,101043.52
2018-03-26T19:57:54.927Z,101046.63
2018-03-26T20:00:20.731Z,101047.67
2018-03-26T20:02:46.554Z,101055.23
2018-03-26T20:05:12.503Z,101056.13
2018-03-26T20:07:38.486Z,101062.56
2018-03-26T20:10:04.304Z,101058.66
2018-03-26T20:12:30.271Z,101056.70
2018-03-26T20:14:56.213Z,101065.49
2018-03-26T20:17:22.203Z,101063.62
2018-03-26T20:19:48.133Z,101065.55
2018-03-26T20:22:13.995Z,101067.12
2018-03-26T20:24:39.826Z,101063.64
2018-03-26T20:27:05.651Z,101067.06
2018-03-26T20:29:31.618Z,101068.91
2018-03-26T20:31:57.480Z,101070.97
2018-03-26T20:34:23.299Z,101063.87
2018-03-26T20:36:49.154Z,101065.75
2018-03-26T20:39:14.975Z,101064.30
2018-03-26T20:41:40.790Z,101069.98
2018-03-26T20:44:06.747Z,101067.65
2018-03-26T20:46:32.657Z,101073.45
2018-03-26T20:48:58.602Z,101072.61
2018-03-26T20:51:24.606Z,101075.05
2018-03-26T20:53:50.421Z,101071.44
2018-03-26T20:56:16.233Z,101075.19
2018-03-26T20:58:42.048Z,101072.36
2018-03-26T21:01:08.003Z,101073.03
2018-03-26T21:03:33.855Z,101071.55
2018-03-26T21:05:59.667Z,101070.87
2018-03-26T21:08:25.491Z,101073.65
2018-03-26T21:10:51.320Z,101074.42
2018-03-26T21:13:17.130Z,101068.13
2018-03-26T21:15:42.969Z,101070.83
2018-03-26T21:18:08.791Z,101073.09
2018-03-26T21:20:34.598Z,101076.70
2018-03-26T21:23:00.410Z,101075.42
2018-03-26T21:25:26.214Z,101081.72
2018-03-26T21:27:52.027Z,101078.35
2018-03-26T21:30:17.838Z,101077.21
2018-03-26T21:32:43.691Z,101083.59
2018-03-26T21:35:09.502Z,101081.80
2018-03-26T21:37:35.315Z,101083.35
2018-03-26T21:40:01.132Z,101082.00
2018-03-26T21:42:26.949Z,101082.28
2018-03-26T21:44:52.763Z,101087.13
2018-03-26T21:47:18.578Z,101086.58
2018-03-26T21:49:44.395Z,101085.80
2018-03-26T21:52:10.255Z,101084.16
2018-03-26T21:54:36.075Z,101074.94
2018-03-26T21:57:01.893Z,101075.25
2018-03-26T22:07:39.839Z,101067.68
2018-03-26T22:10:05.654Z,101070.42
2018-03-26T22:12:31.535Z,101073.82
2018-03-26T22:14:58.318Z,101069.50
2018-03-26T22:17:24.373Z,101077.30
2018-03-26T22:19:50.222Z,101078.81
2018-03-26T22:22:16.096Z,101077.66
2018-03-26T22:27:13.577Z,101083.34
2018-03-26T22:29:39.546Z,101079.56
2018-03-26T22:32:05.441Z,101082.54
2018-03-26T22:34:31.420Z,101083.09
2018-03-26T22:36:57.201Z,101087.11
2018-03-26T22:39:23.769Z,101077.58
2018-03-26T22:41:49.542Z,101091.23
2018-03-26T22:52:41.074Z,101085.81
2018-03-26T22:55:08.432Z,101093.35
2018-03-26T22:57:34.209Z,101099.58
2018-03-26T23:00:00.325Z,101098.62
2018-03-26T23:02:26.109Z,101092.58
2018-03-26T23:04:51.887Z,101096.08
2018-03-26T23:07:17.716Z,101094.84
2018-03-26T23:09:43.477Z,101088.50
2018-03-26T23:12:09.311Z,101094.70
2018-03-26T23:14:35.085Z,101093.30
2018-03-26T23:17:00.864Z,101094.95
2018-03-26T23:19:26.645Z,101096.02
2018-03-26T23:21:52.426Z,101096.94
2018-03-26T23:24:18.205Z,101093.27
2018-03-26T23:26:43.982Z,101088.73
2018-03-26T23:29:09.763Z,101098.73
2018-03-26T23:31:35.546Z,101095.66
2018-03-26T23:34:01.324Z,101094.17
2018-03-26T23:36:27.096Z,101093.39
2018-03-26T23:38:52.878Z,101091.63
2018-03-26T23:41:18.670Z,101089.58
2018-03-26T23:43:44.453Z,101096.27
2018-03-26T23:46:10.239Z,101092.73
2018-03-26T23:48:36.065Z,101089.48
2018-03-26T23:51:01.874Z,101095.45
2018-03-26T23:53:27.657Z,101095.80
2018-03-26T23:55:53.439Z,101098.06
2018-03-26T23:58:19.228Z,101093.28
